ADDS TAF Data INFO
IDs: Format: Raw Decoded Include METARs

Data at: 0427 UTC 21 Jan 2018

KECG 202332Z 2100/2124 22005KT P6SM SKC
  FM211200 29003KT P6SM SCT250
  FM212000 16004KT P6SM SKC